createdAt,value
2022-08-17T00:00:53.161Z,19.84
2022-08-17T00:01:54.671Z,19.91
2022-08-17T00:03:03.402Z,19.88
2022-08-17T00:04:09.286Z,19.89
2022-08-17T00:05:15.540Z,19.91
2022-08-17T00:06:19.959Z,19.97
2022-08-17T00:07:21.474Z,19.96
2022-08-17T00:08:25.267Z,19.91
2022-08-17T00:09:26.822Z,19.89
2022-08-17T00:10:28.415Z,19.90
2022-08-17T00:11:37.956Z,19.86
2022-08-17T00:12:43.983Z,19.80
2022-08-17T00:13:48.651Z,19.82
2022-08-17T00:14:50.156Z,19.90
2022-08-17T00:15:54.302Z,19.88
2022-08-17T00:16:57.240Z,19.88
2022-08-17T00:17:59.190Z,19.92
2022-08-17T00:19:08.498Z,19.87
2022-08-17T00:20:11.172Z,19.93
2022-08-17T00:21:15.655Z,19.86
2022-08-17T00:22:34.465Z,19.97
2022-08-17T00:23:39.266Z,20.01
2022-08-17T00:24:46.063Z,20.00
2022-08-17T00:25:48.108Z,20.02
2022-08-17T00:26:51.081Z,19.93
2022-08-17T00:27:52.566Z,20.03
2022-08-17T00:28:56.422Z,20.06
2022-08-17T00:29:57.898Z,19.96
2022-08-17T00:30:59.840Z,19.97
2022-08-17T00:32:01.728Z,20.00
2022-08-17T00:33:27.298Z,20.07
2022-08-17T00:34:29.011Z,20.06
2022-08-17T00:35:33.659Z,20.02
2022-08-17T00:36:35.165Z,19.97
2022-08-17T00:37:36.711Z,20.01
2022-08-17T00:38:38.489Z,19.99
2022-08-17T00:39:40.073Z,19.94
2022-08-17T00:40:44.947Z,19.87
2022-08-17T00:41:46.619Z,19.90
2022-08-17T00:42:49.751Z,19.71
2022-08-17T00:43:54.850Z,19.77
2022-08-17T00:44:56.558Z,19.71
2022-08-17T00:45:59.190Z,19.66
2022-08-17T00:47:00.665Z,19.56
2022-08-17T00:48:02.409Z,19.64
2022-08-17T00:49:04.506Z,19.68
2022-08-17T00:50:10.435Z,19.69
2022-08-17T00:51:29.522Z,19.62
2022-08-17T00:52:37.060Z,19.69
2022-08-17T00:53:42.562Z,19.66
2022-08-17T00:54:48.941Z,19.68
2022-08-17T00:55:50.742Z,19.63
2022-08-17T00:56:55.031Z,19.60
2022-08-17T00:58:00.101Z,19.35
2022-08-17T00:59:05.082Z,19.34
2022-08-17T01:00:11.905Z,19.19
2022-08-17T01:01:21.474Z,19.28
2022-08-17T01:02:24.359Z,19.16
2022-08-17T01:03:26.238Z,19.00
2022-08-17T01:04:29.793Z,19.03
2022-08-17T01:05:34.256Z,19.08
2022-08-17T01:06:36.089Z,18.87
2022-08-17T01:07:38.113Z,18.64
2022-08-17T01:08:40.218Z,18.87
2022-08-17T01:09:43.322Z,18.71
2022-08-17T01:10:59.865Z,18.61
2022-08-17T01:12:03.876Z,18.52
2022-08-17T01:13:06.969Z,18.63
2022-08-17T01:14:08.772Z,18.45
2022-08-17T01:15:11.325Z,18.30
2022-08-17T01:16:17.635Z,18.15
2022-08-17T01:17:19.123Z,18.05
2022-08-17T01:18:20.971Z,17.96
2022-08-17T01:19:25.777Z,17.93
2022-08-17T01:20:27.403Z,17.98
2022-08-17T01:21:38.097Z,17.96
2022-08-17T01:22:40.971Z,18.15
2022-08-17T01:23:42.460Z,18.13
2022-08-17T01:24:46.856Z,18.39
2022-08-17T01:25:50.286Z,18.48
2022-08-17T01:26:51.777Z,18.54
2022-08-17T01:27:53.492Z,18.53
2022-08-17T01:28:56.008Z,18.61
2022-08-17T01:30:01.568Z,18.61
2022-08-17T01:31:06.059Z,18.65
2022-08-17T01:32:08.898Z,18.79
2022-08-17T01:33:10.844Z,18.79
2022-08-17T01:34:14.534Z,18.70
2022-08-17T01:35:16.051Z,18.67
2022-08-17T01:36:18.060Z,18.54
2022-08-17T01:37:20.904Z,18.44
2022-08-17T01:38:27.053Z,18.13
2022-08-17T01:39:31.864Z,18.08
2022-08-17T01:40:36.311Z,17.98
2022-08-17T01:41:39.917Z,17.93
2022-08-17T01:42:44.326Z,17.79
2022-08-17T01:43:49.656Z,17.83
2022-08-17T01:44:56.123Z,17.86
2022-08-17T01:46:02.697Z,17.73
2022-08-17T01:47:05.822Z,17.75
2022-08-17T01:48:07.316Z,17.83
2022-08-17T01:49:11.205Z,17.87
2022-08-17T01:50:16.745Z,17.77
2022-08-17T01:51:18.978Z,17.74
2022-08-17T01:52:20.888Z,17.60
2022-08-17T01:53:27.425Z,17.50
2022-08-17T01:54:29.186Z,17.44
2022-08-17T01:55:35.923Z,17.36
2022-08-17T01:56:42.233Z,17.31
2022-08-17T01:57:43.702Z,17.37
2022-08-17T01:58:45.273Z,17.41
2022-08-17T01:59:46.867Z,17.23
2022-08-17T02:00:59.853Z,17.18
2022-08-17T02:02:01.927Z,17.16
2022-08-17T02:03:04.135Z,17.15
2022-08-17T02:04:06.585Z,17.14
2022-08-17T02:05:08.704Z,17.13
2022-08-17T02:06:27.875Z,17.14
2022-08-17T02:07:29.872Z,17.09
2022-08-17T02:08:38.896Z,17.07
2022-08-17T02:09:42.138Z,17.15
2022-08-17T02:10:46.843Z,17.12
2022-08-17T02:11:48.421Z,17.00
2022-08-17T02:12:52.234Z,16.99
2022-08-17T02:14:02.355Z,16.90
2022-08-17T02:15:06.293Z,16.90
2022-08-17T02:16:07.843Z,16.89
2022-08-17T02:17:09.375Z,16.71
2022-08-17T02:18:11.943Z,16.69
2022-08-17T02:19:15.376Z,16.74
2022-08-17T02:20:16.893Z,16.62
2022-08-17T02:21:40.047Z,16.67
2022-08-17T02:22:45.699Z,16.77
2022-08-17T02:23:49.394Z,16.65
2022-08-17T02:25:01.252Z,16.56
2022-08-17T02:26:04.325Z,16.52
2022-08-17T02:27:06.257Z,16.58
2022-08-17T02:28:07.732Z,16.55
2022-08-17T02:29:09.263Z,16.56
2022-08-17T02:30:59.954Z,16.57
2022-08-17T02:31:35.614Z,16.33
2022-08-17T02:32:37.508Z,16.28
2022-08-17T02:33:41.804Z,16.23
2022-08-17T02:34:44.801Z,16.14
2022-08-17T02:35:46.454Z,16.04
2022-08-17T02:36:47.909Z,16.11
2022-08-17T02:37:51.865Z,16.13
2022-08-17T02:38:58.652Z,16.18
2022-08-17T02:40:00.528Z,16.28
2022-08-17T02:41:02.242Z,16.32
2022-08-17T02:42:04.475Z,16.35
2022-08-17T02:43:06.661Z,16.46
2022-08-17T02:44:08.174Z,16.53
2022-08-17T02:45:13.558Z,16.62
2022-08-17T02:46:15.105Z,16.62
2022-08-17T02:47:16.591Z,16.76
2022-08-17T02:48:30.643Z,16.65
2022-08-17T02:49:33.396Z,16.77
2022-08-17T02:50:34.914Z,16.67
2022-08-17T02:51:36.443Z,16.54
2022-08-17T02:52:43.744Z,16.52
2022-08-17T02:53:45.854Z,16.35
2022-08-17T02:54:48.711Z,16.34
2022-08-17T02:55:50.192Z,16.17
2022-08-17T02:56:53.261Z,16.34
2022-08-17T02:57:55.000Z,16.32
2022-08-17T02:58:56.524Z,16.29
2022-08-17T02:59:58.015Z,16.30
2022-08-17T03:00:59.514Z,16.23
2022-08-17T03:02:02.772Z,16.30
2022-08-17T03:03:05.840Z,16.36
2022-08-17T03:04:07.407Z,16.37
2022-08-17T03:05:11.311Z,16.36
2022-08-17T03:06:12.811Z,16.52
2022-08-17T03:07:14.371Z,16.42
2022-08-17T03:08:16.363Z,16.47
2022-08-17T03:09:17.843Z,16.55
2022-08-17T03:10:21.319Z,16.56
2022-08-17T03:11:22.881Z,16.57
2022-08-17T03:12:24.348Z,16.50
2022-08-17T03:13:26.054Z,16.51
2022-08-17T03:14:27.564Z,16.46
2022-08-17T03:15:31.741Z,16.47
2022-08-17T03:16:33.254Z,16.69
2022-08-17T03:17:36.232Z,16.47
2022-08-17T03:18:37.789Z,16.40
2022-08-17T03:19:42.978Z,16.25
2022-08-17T03:20:44.875Z,16.31
2022-08-17T03:21:46.387Z,16.26
2022-08-17T03:23:01.882Z,16.24
2022-08-17T03:24:08.906Z,16.16
2022-08-17T03:25:13.275Z,16.27
2022-08-17T03:26:22.339Z,16.24
2022-08-17T03:27:23.807Z,16.21
2022-08-17T03:28:25.930Z,16.31
2022-08-17T03:29:27.427Z,16.32
2022-08-17T03:30:29.573Z,16.41
2022-08-17T03:31:31.094Z,16.34
2022-08-17T03:32:37.875Z,16.39
2022-08-17T03:33:39.457Z,16.28
2022-08-17T03:34:41.042Z,16.29
2022-08-17T03:35:42.602Z,16.32
2022-08-17T03:36:44.420Z,16.33
2022-08-17T03:37:46.394Z,16.32
2022-08-17T03:38:47.929Z,16.40
2022-08-17T03:39:52.789Z,16.47
2022-08-17T03:40:56.673Z,16.46
2022-08-17T03:42:06.810Z,16.44
2022-08-17T03:43:09.956Z,16.55
2022-08-17T03:44:11.419Z,16.52
2022-08-17T03:45:16.655Z,16.58
2022-08-17T03:46:27.915Z,16.68
2022-08-17T03:47:30.646Z,16.69
2022-08-17T03:48:32.595Z,16.77
2022-08-17T03:49:34.104Z,16.74
2022-08-17T03:50:35.614Z,16.65
2022-08-17T03:51:37.120Z,16.62
2022-08-17T03:52:38.608Z,16.65
2022-08-17T03:53:48.286Z,16.72
2022-08-17T03:54:49.795Z,16.72
2022-08-17T03:55:51.452Z,16.68
2022-08-17T03:56:59.837Z,16.71
2022-08-17T03:58:02.643Z,16.73
2022-08-17T03:59:04.151Z,16.70
2022-08-17T04:00:07.320Z,16.68
2022-08-17T04:01:09.576Z,16.68
2022-08-17T04:02:15.483Z,16.68
2022-08-17T04:03:17.770Z,16.69
2022-08-17T04:04:20.979Z,16.71
2022-08-17T04:05:29.346Z,16.70
2022-08-17T04:06:30.812Z,16.75
2022-08-17T04:07:32.342Z,16.77
2022-08-17T04:08:33.917Z,16.77
2022-08-17T04:09:35.868Z,16.77
2022-08-17T04:10:38.563Z,16.78
2022-08-17T04:11:46.525Z,16.83
2022-08-17T04:12:51.316Z,16.84
2022-08-17T04:13:54.321Z,16.85
2022-08-17T04:14:55.971Z,16.89
2022-08-17T04:15:57.437Z,16.90
2022-08-17T04:16:58.895Z,16.88
2022-08-17T04:18:00.535Z,16.92
2022-08-17T04:19:02.849Z,16.91
2022-08-17T04:20:05.116Z,16.93
2022-08-17T04:21:08.771Z,17.01
2022-08-17T04:22:10.263Z,16.98
2022-08-17T04:23:31.736Z,16.97
2022-08-17T04:24:34.305Z,16.99
2022-08-17T04:25:39.256Z,16.95
2022-08-17T04:26:53.631Z,16.95
2022-08-17T04:27:56.707Z,17.00
2022-08-17T04:28:59.854Z,16.93
2022-08-17T04:30:01.910Z,16.92
2022-08-17T04:31:03.624Z,16.89
2022-08-17T04:32:05.905Z,16.87
2022-08-17T04:33:09.832Z,16.90
2022-08-17T04:34:11.524Z,16.88
2022-08-17T04:35:17.930Z,16.97
2022-08-17T04:36:19.569Z,17.03
2022-08-17T04:37:21.058Z,17.01
2022-08-17T04:38:25.100Z,17.04
2022-08-17T04:39:26.638Z,17.00
2022-08-17T04:40:28.499Z,16.98
2022-08-17T04:41:30.315Z,17.00
2022-08-17T04:42:31.777Z,16.87
2022-08-17T04:43:35.772Z,16.85
2022-08-17T04:44:38.610Z,16.74
2022-08-17T04:45:54.984Z,16.69
2022-08-17T04:46:57.963Z,16.68
2022-08-17T04:48:00.961Z,16.60
2022-08-17T04:49:05.906Z,16.61
2022-08-17T04:50:08.444Z,16.63
2022-08-17T04:51:12.401Z,16.61
2022-08-17T04:52:29.675Z,16.60
2022-08-17T04:53:35.761Z,16.63
2022-08-17T04:54:37.231Z,16.68
2022-08-17T04:55:39.506Z,16.68
2022-08-17T04:56:41.287Z,16.72
2022-08-17T04:57:45.091Z,16.74
2022-08-17T04:58:52.349Z,16.78
2022-08-17T04:59:55.170Z,16.80
2022-08-17T05:00:56.724Z,16.86
2022-08-17T05:01:58.275Z,16.91
2022-08-17T05:02:59.860Z,16.93
2022-08-17T05:04:21.127Z,16.94
2022-08-17T05:05:29.662Z,16.95
2022-08-17T05:06:32.927Z,16.90
2022-08-17T05:07:34.854Z,16.88
2022-08-17T05:08:38.613Z,16.84
2022-08-17T05:09:40.072Z,16.80
2022-08-17T05:10:45.189Z,16.77
2022-08-17T05:11:47.346Z,16.74
2022-08-17T05:12:57.273Z,16.72
2022-08-17T05:13:59.070Z,16.70
2022-08-17T05:15:01.902Z,16.69
2022-08-17T05:16:04.203Z,16.71
2022-08-17T05:17:09.352Z,16.76
2022-08-17T05:18:13.139Z,16.79
2022-08-17T05:19:14.593Z,16.83
2022-08-17T05:20:16.182Z,16.84
2022-08-17T05:21:18.995Z,16.95
2022-08-17T05:22:20.549Z,17.07
2022-08-17T05:23:24.573Z,17.18
2022-08-17T05:24:40.753Z,17.31
2022-08-17T05:25:47.962Z,17.33
2022-08-17T05:26:49.489Z,17.27
2022-08-17T05:27:51.690Z,17.43
2022-08-17T05:28:53.830Z,17.57
2022-08-17T05:29:55.713Z,17.57
2022-08-17T05:31:01.239Z,17.54
2022-08-17T05:32:37.446Z,17.57
2022-08-17T05:33:35.120Z,17.59
2022-08-17T05:34:36.580Z,17.72
2022-08-17T05:35:43.016Z,17.77
2022-08-17T05:36:44.661Z,17.93
2022-08-17T05:37:46.281Z,18.17
2022-08-17T05:38:47.750Z,18.33
2022-08-17T05:39:49.278Z,18.39
2022-08-17T05:40:51.665Z,18.59
2022-08-17T05:41:53.157Z,18.72
2022-08-17T05:43:04.973Z,18.75
2022-08-17T05:44:06.468Z,18.72
2022-08-17T05:45:09.244Z,18.78
2022-08-17T05:46:20.148Z,18.89
2022-08-17T05:47:24.114Z,18.90
2022-08-17T05:48:36.794Z,18.99
2022-08-17T05:49:41.430Z,19.17
2022-08-17T05:50:50.916Z,19.32
2022-08-17T05:52:10.186Z,19.47
2022-08-17T05:53:21.587Z,19.55
2022-08-17T05:54:38.792Z,19.68
2022-08-17T05:55:48.870Z,19.76
2022-08-17T05:57:13.638Z,19.76
2022-08-17T05:58:23.805Z,19.91
2022-08-17T05:59:34.977Z,20.07
2022-08-17T06:00:42.989Z,20.20
2022-08-17T06:01:55.976Z,20.20
2022-08-17T06:03:32.996Z,20.27
2022-08-17T06:05:00.414Z,20.49
2022-08-17T06:06:17.285Z,20.59
2022-08-17T06:07:36.306Z,20.36
2022-08-17T06:08:51.633Z,20.39
2022-08-17T06:10:00.206Z,20.30
2022-08-17T06:11:10.282Z,20.33
2022-08-17T06:12:36.261Z,20.45
2022-08-17T06:13:52.202Z,20.55
2022-08-17T06:15:04.074Z,20.82
2022-08-17T06:16:33.859Z,20.99
2022-08-17T06:17:36.193Z,21.24
2022-08-17T06:18:45.402Z,21.09
2022-08-17T06:19:52.543Z,21.00
2022-08-17T06:20:58.360Z,21.08
2022-08-17T06:22:00.269Z,20.95
2022-08-17T06:23:08.556Z,20.96
2022-08-17T06:24:27.471Z,21.02
2022-08-17T06:25:34.584Z,21.17
2022-08-17T06:26:43.004Z,21.30
2022-08-17T06:27:53.414Z,21.33
2022-08-17T06:29:00.099Z,21.53
2022-08-17T06:30:07.460Z,21.47
2022-08-17T06:31:23.542Z,21.47
2022-08-17T06:32:25.429Z,21.44
2022-08-17T06:33:31.492Z,21.48
2022-08-17T06:34:32.984Z,21.43
2022-08-17T06:35:41.457Z,21.61
2022-08-17T06:36:56.666Z,21.76
2022-08-17T06:38:09.137Z,21.89
2022-08-17T06:39:35.057Z,22.29
2022-08-17T06:40:49.474Z,22.27
2022-08-17T06:42:01.166Z,22.29
2022-08-17T06:43:15.523Z,22.64
2022-08-17T06:44:43.237Z,22.48
2022-08-17T06:45:45.550Z,22.97
2022-08-17T06:46:50.884Z,22.70
2022-08-17T06:47:59.261Z,22.78
2022-08-17T06:49:14.160Z,22.59
2022-08-17T06:50:19.833Z,22.73
2022-08-17T06:51:24.969Z,22.93
2022-08-17T06:52:45.471Z,22.61
2022-08-17T06:53:59.812Z,22.57
2022-08-17T06:55:05.318Z,22.54
2022-08-17T06:56:09.470Z,22.49
2022-08-17T06:57:17.976Z,22.56
2022-08-17T06:58:23.453Z,22.67
2022-08-17T06:59:55.257Z,22.60
2022-08-17T07:01:03.540Z,22.39
2022-08-17T07:02:08.479Z,22.46
2022-08-17T07:03:15.430Z,22.41
2022-08-17T07:04:23.029Z,22.38
2022-08-17T07:05:28.050Z,22.39
2022-08-17T07:06:37.714Z,22.52
2022-08-17T07:07:47.569Z,22.25
2022-08-17T07:08:55.746Z,22.36
2022-08-17T07:10:00.904Z,22.34
2022-08-17T07:11:06.748Z,22.38
2022-08-17T07:12:14.835Z,22.46
2022-08-17T07:13:33.928Z,22.55
2022-08-17T07:14:39.450Z,22.66
2022-08-17T07:15:42.831Z,22.70
2022-08-17T07:16:48.665Z,22.98
2022-08-17T07:17:50.548Z,23.25
2022-08-17T07:18:55.589Z,23.24
2022-08-17T07:20:04.882Z,23.44
2022-08-17T07:21:17.523Z,23.20
2022-08-17T07:22:25.449Z,23.35
2022-08-17T07:23:52.278Z,23.46
2022-08-17T07:24:55.915Z,23.32
2022-08-17T07:26:04.205Z,23.29
2022-08-17T07:27:09.946Z,23.21
2022-08-17T07:28:11.419Z,23.10
2022-08-17T07:29:17.468Z,23.16
2022-08-17T07:30:24.569Z,23.10
2022-08-17T07:31:28.892Z,23.42
2022-08-17T07:32:34.146Z,23.17
2022-08-17T07:33:35.910Z,23.24
2022-08-17T07:35:10.804Z,23.25
2022-08-17T07:36:29.172Z,23.19
2022-08-17T07:37:31.418Z,23.23
2022-08-17T07:38:34.587Z,23.25
2022-08-17T07:39:36.156Z,23.26
2022-08-17T07:41:01.501Z,23.10
2022-08-17T07:42:04.997Z,23.23
2022-08-17T07:43:21.842Z,23.18
2022-08-17T07:44:24.776Z,23.35
2022-08-17T07:45:26.370Z,23.33
2022-08-17T07:46:33.109Z,23.35
2022-08-17T07:47:34.598Z,23.60
2022-08-17T07:48:37.904Z,23.63
2022-08-17T07:49:42.004Z,23.75
2022-08-17T07:50:49.307Z,23.84
2022-08-17T07:51:59.976Z,23.94
2022-08-17T07:53:16.929Z,24.11
2022-08-17T07:54:21.999Z,24.30
2022-08-17T07:55:28.991Z,24.28
2022-08-17T07:56:34.929Z,24.53
2022-08-17T07:57:36.505Z,24.81
2022-08-17T07:58:37.961Z,24.72
2022-08-17T07:59:43.206Z,25.08
2022-08-17T08:00:45.752Z,25.44
2022-08-17T08:01:58.477Z,25.28
2022-08-17T08:03:12.260Z,25.38
2022-08-17T08:04:49.988Z,25.31
2022-08-17T08:05:51.573Z,25.52
2022-08-17T08:06:56.999Z,25.25
2022-08-17T08:08:01.886Z,25.66
2022-08-17T08:09:03.581Z,25.91
2022-08-17T08:10:09.654Z,25.50
2022-08-17T08:11:13.818Z,24.79
2022-08-17T08:12:33.964Z,24.52
2022-08-17T08:13:37.567Z,24.87
2022-08-17T08:14:39.108Z,24.70
2022-08-17T08:15:45.141Z,24.78
2022-08-17T08:16:58.358Z,25.01
2022-08-17T08:18:02.355Z,24.97
2022-08-17T08:19:04.942Z,25.41
2022-08-17T08:20:47.643Z,25.27
2022-08-17T08:21:48.908Z,25.28
2022-08-17T08:22:59.133Z,24.99
2022-08-17T08:24:19.282Z,24.80
2022-08-17T08:25:30.187Z,24.77
2022-08-17T08:26:37.195Z,24.96
2022-08-17T08:27:49.491Z,24.61
2022-08-17T08:28:59.321Z,24.32
2022-08-17T08:30:06.713Z,24.77
2022-08-17T08:31:18.620Z,24.44
2022-08-17T08:32:42.058Z,24.88
2022-08-17T08:33:55.177Z,24.67
2022-08-17T08:35:04.060Z,24.46
2022-08-17T08:36:56.634Z,24.39
2022-08-17T08:37:47.334Z,24.68
2022-08-17T08:38:55.766Z,24.31
2022-08-17T08:40:08.149Z,24.10
2022-08-17T08:41:36.099Z,24.29
2022-08-17T08:42:44.613Z,24.41
2022-08-17T08:43:55.084Z,24.55
2022-08-17T08:45:05.523Z,24.81
2022-08-17T08:46:19.806Z,24.80
2022-08-17T08:47:35.539Z,24.98
2022-08-17T08:49:14.536Z,25.00
2022-08-17T08:50:37.167Z,24.98
2022-08-17T08:51:51.759Z,24.92
2022-08-17T08:53:12.455Z,25.02
2022-08-17T08:54:26.912Z,25.03
2022-08-17T08:55:42.155Z,24.80
2022-08-17T08:57:19.480Z,24.76
2022-08-17T08:58:31.617Z,24.89
2022-08-17T08:59:57.846Z,24.94
2022-08-17T09:01:03.633Z,24.96
2022-08-17T09:02:23.825Z,25.32
2022-08-17T09:03:53.168Z,24.88
2022-08-17T09:05:15.251Z,25.25
2022-08-17T09:06:37.866Z,25.55
2022-08-17T09:07:48.551Z,25.49
2022-08-17T09:09:03.570Z,25.70
2022-08-17T09:10:11.442Z,26.32
2022-08-17T09:11:19.434Z,26.27
2022-08-17T09:12:30.657Z,25.46
2022-08-17T09:13:38.786Z,25.31
2022-08-17T09:14:50.003Z,25.19
2022-08-17T09:15:54.705Z,25.34
2022-08-17T09:17:03.038Z,25.13
2022-08-17T09:19:00.458Z,25.09
2022-08-17T09:19:37.924Z,25.11
2022-08-17T09:20:50.230Z,25.48
2022-08-17T09:21:54.811Z,25.77
2022-08-17T09:23:02.302Z,26.01
2022-08-17T09:24:11.182Z,26.26
2022-08-17T09:25:17.013Z,26.25
2022-08-17T09:26:24.054Z,26.27
2022-08-17T09:27:32.857Z,25.87
2022-08-17T09:28:37.026Z,26.09
2022-08-17T09:29:43.346Z,26.38
2022-08-17T09:30:47.200Z,26.03
2022-08-17T09:31:54.214Z,26.13
2022-08-17T09:32:59.715Z,26.29
2022-08-17T09:34:05.245Z,26.20
2022-08-17T09:35:15.292Z,25.65
2022-08-17T09:36:22.903Z,25.42
2022-08-17T09:37:32.317Z,25.29
2022-08-17T09:38:45.440Z,25.23
2022-08-17T09:39:58.239Z,24.92
2022-08-17T09:41:09.313Z,24.97
2022-08-17T09:42:17.509Z,24.89
2022-08-17T09:43:31.602Z,24.73
2022-08-17T09:44:38.749Z,24.79
2022-08-17T09:45:45.067Z,24.84
2022-08-17T09:46:50.610Z,24.62
2022-08-17T09:47:57.812Z,24.69
2022-08-17T09:49:06.526Z,24.86
2022-08-17T09:50:13.416Z,24.72
2022-08-17T09:51:21.301Z,24.69
2022-08-17T09:52:26.205Z,24.56
2022-08-17T09:53:31.928Z,24.63
2022-08-17T09:54:40.285Z,24.69
2022-08-17T09:56:03.335Z,25.16
2022-08-17T09:57:31.780Z,25.39
2022-08-17T09:58:46.960Z,25.02
2022-08-17T10:00:02.281Z,24.92
2022-08-17T10:01:16.788Z,24.75
2022-08-17T10:02:39.566Z,24.83
2022-08-17T10:04:09.816Z,24.85
2022-08-17T10:05:16.901Z,24.67
2022-08-17T10:06:23.765Z,24.76
2022-08-17T10:07:33.894Z,24.95
2022-08-17T10:08:41.973Z,24.99
2022-08-17T10:09:55.948Z,25.23
2022-08-17T10:11:11.375Z,25.56
2022-08-17T10:12:28.296Z,26.04
2022-08-17T10:13:40.205Z,25.91
2022-08-17T10:15:14.738Z,26.37
2022-08-17T10:16:25.488Z,26.14
2022-08-17T10:17:35.041Z,26.23
2022-08-17T10:18:48.292Z,25.81
2022-08-17T10:19:58.211Z,26.04
2022-08-17T10:21:02.906Z,26.07
2022-08-17T10:22:14.546Z,25.45
2022-08-17T10:23:22.221Z,25.36
2022-08-17T10:24:29.249Z,25.31
2022-08-17T10:25:49.017Z,24.86
2022-08-17T10:26:58.502Z,24.11
2022-08-17T10:28:06.640Z,24.11
2022-08-17T10:29:13.366Z,24.77
2022-08-17T10:30:17.621Z,24.95
2022-08-17T10:31:40.060Z,24.61
2022-08-17T10:32:48.340Z,25.29
2022-08-17T10:34:07.220Z,25.51
2022-08-17T10:35:29.016Z,25.56
2022-08-17T10:36:42.467Z,25.03
2022-08-17T10:38:08.397Z,24.93
2022-08-17T10:39:22.159Z,24.54
2022-08-17T10:40:33.159Z,24.43
2022-08-17T10:41:44.560Z,24.24
2022-08-17T10:42:51.480Z,23.94
2022-08-17T10:44:40.456Z,23.62
2022-08-17T10:45:30.792Z,23.82
2022-08-17T10:46:46.389Z,23.70
2022-08-17T10:48:04.828Z,23.75
2022-08-17T10:49:28.767Z,24.16
2022-08-17T10:50:47.773Z,23.95
2022-08-17T10:51:51.310Z,23.62
2022-08-17T10:52:52.866Z,23.49
2022-08-17T10:53:57.270Z,23.33
2022-08-17T10:55:18.652Z,23.30
2022-08-17T10:56:39.629Z,23.30
2022-08-17T10:57:43.418Z,23.45
2022-08-17T10:58:49.262Z,23.72
2022-08-17T10:59:53.198Z,23.42
2022-08-17T11:00:59.154Z,23.77
2022-08-17T11:02:12.817Z,23.85
2022-08-17T11:03:18.572Z,23.66
2022-08-17T11:04:27.968Z,23.81
2022-08-17T11:05:51.185Z,23.89
2022-08-17T11:07:07.231Z,24.29
2022-08-17T11:08:50.466Z,24.32
2022-08-17T11:10:13.617Z,24.35
2022-08-17T11:11:51.348Z,24.04
2022-08-17T11:13:01.256Z,24.18
2022-08-17T11:14:25.461Z,23.96
2022-08-17T11:15:42.608Z,23.63
2022-08-17T11:17:04.758Z,23.55
2022-08-17T11:18:20.863Z,24.10
2022-08-17T11:19:52.337Z,24.62
2022-08-17T11:21:17.875Z,24.32
2022-08-17T11:22:58.149Z,24.16
2022-08-17T11:24:18.910Z,23.64
2022-08-17T11:25:33.718Z,23.66
2022-08-17T11:26:38.541Z,23.74
2022-08-17T11:27:40.585Z,23.85
2022-08-17T11:28:52.443Z,23.94
2022-08-17T11:30:02.274Z,23.92
2022-08-17T11:31:08.554Z,23.98
2022-08-17T11:32:27.741Z,23.82
2022-08-17T11:34:02.566Z,24.02
2022-08-17T11:35:21.181Z,24.05
2022-08-17T11:36:35.077Z,24.16
2022-08-17T11:37:46.407Z,24.28
2022-08-17T11:38:53.249Z,24.04
2022-08-17T11:40:25.288Z,24.28
2022-08-17T11:41:36.480Z,24.72
2022-08-17T11:42:55.548Z,24.63
2022-08-17T11:44:09.722Z,24.57
2022-08-17T11:45:32.450Z,24.10
2022-08-17T11:46:51.886Z,24.05
2022-08-17T11:48:26.042Z,24.19
2022-08-17T11:49:31.771Z,24.49
2022-08-17T11:50:46.210Z,24.07
2022-08-17T11:52:10.296Z,24.42
2022-08-17T11:54:32.849Z,24.42
2022-08-17T11:56:04.157Z,24.42
2022-08-17T11:57:39.136Z,24.27
2022-08-17T11:58:42.382Z,24.15
2022-08-17T11:59:59.028Z,24.16
2022-08-17T12:01:03.264Z,24.01
2022-08-17T12:02:36.224Z,24.48
2022-08-17T12:03:55.620Z,24.99
2022-08-17T12:05:09.641Z,25.13
2022-08-17T12:06:30.742Z,25.21
2022-08-17T12:07:34.216Z,25.41
2022-08-17T12:08:40.880Z,25.16
2022-08-17T12:09:45.856Z,24.80
2022-08-17T12:10:59.424Z,24.89
2022-08-17T12:12:12.841Z,24.56
2022-08-17T12:13:17.762Z,24.69
2022-08-17T12:14:35.685Z,24.63
2022-08-17T12:15:48.761Z,24.72
2022-08-17T12:17:05.722Z,24.80
2022-08-17T12:18:07.412Z,24.55
2022-08-17T12:19:17.987Z,24.57
2022-08-17T12:20:24.147Z,24.40
2022-08-17T12:21:39.721Z,23.92
2022-08-17T12:22:49.586Z,24.09
2022-08-17T12:23:57.315Z,24.17
2022-08-17T12:25:08.910Z,24.36
2022-08-17T12:26:16.995Z,24.52
2022-08-17T12:27:48.916Z,24.74
2022-08-17T12:28:49.973Z,24.62
2022-08-17T12:29:53.598Z,24.35
2022-08-17T12:30:58.141Z,24.27
2022-08-17T12:32:01.214Z,24.29
2022-08-17T12:33:02.777Z,24.34
2022-08-17T12:34:04.979Z,24.20
2022-08-17T12:35:26.054Z,23.96
2022-08-17T12:36:28.819Z,24.14
2022-08-17T12:37:32.951Z,23.86
2022-08-17T12:38:36.801Z,24.00
2022-08-17T12:39:40.163Z,24.19
2022-08-17T12:40:53.786Z,24.30
2022-08-17T12:42:02.623Z,24.10
2022-08-17T12:43:07.773Z,23.86
2022-08-17T12:44:15.529Z,23.93
2022-08-17T12:45:23.096Z,24.17
2022-08-17T12:46:24.562Z,24.26
2022-08-17T12:47:29.515Z,24.36
2022-08-17T12:48:31.090Z,24.13
2022-08-17T12:49:35.580Z,24.23
2022-08-17T12:50:39.885Z,24.01
2022-08-17T12:51:45.712Z,24.07
2022-08-17T12:52:48.420Z,23.87
2022-08-17T12:53:55.079Z,24.10
2022-08-17T12:54:59.852Z,23.82
2022-08-17T12:56:06.765Z,23.52
2022-08-17T12:57:13.421Z,23.66
2022-08-17T12:58:19.232Z,24.04
2022-08-17T12:59:29.745Z,24.42
2022-08-17T13:00:33.013Z,24.42
2022-08-17T13:01:34.864Z,24.39
2022-08-17T13:02:45.139Z,24.40
2022-08-17T13:03:50.260Z,24.58
2022-08-17T13:04:51.876Z,24.56
2022-08-17T13:05:58.703Z,24.51
2022-08-17T13:07:00.461Z,24.50
2022-08-17T13:08:13.875Z,24.75
2022-08-17T13:09:20.819Z,24.75
2022-08-17T13:10:31.672Z,24.82
2022-08-17T13:11:34.250Z,25.12
2022-08-17T13:12:36.106Z,24.82
2022-08-17T13:13:40.235Z,24.80
2022-08-17T13:14:45.214Z,24.82
2022-08-17T13:15:53.055Z,25.00
2022-08-17T13:17:00.139Z,25.12
2022-08-17T13:18:06.725Z,25.05
2022-08-17T13:19:13.079Z,24.54
2022-08-17T13:20:15.155Z,24.74
2022-08-17T13:21:26.362Z,24.99
2022-08-17T13:22:28.583Z,24.81
2022-08-17T13:23:30.777Z,24.67
2022-08-17T13:24:38.022Z,24.81
2022-08-17T13:25:40.169Z,24.72
2022-08-17T13:26:45.346Z,24.95
2022-08-17T13:27:50.166Z,25.19
2022-08-17T13:28:51.793Z,25.18
2022-08-17T13:29:55.999Z,25.14
2022-08-17T13:31:22.150Z,25.27
2022-08-17T13:32:34.269Z,25.49
2022-08-17T13:33:44.770Z,25.53
2022-08-17T13:35:12.503Z,25.39
2022-08-17T13:36:10.723Z,25.13
2022-08-17T13:37:30.264Z,25.06
2022-08-17T13:38:42.586Z,25.04
2022-08-17T13:39:45.504Z,24.94
2022-08-17T13:40:50.404Z,24.83
2022-08-17T13:41:54.374Z,24.79
2022-08-17T13:42:56.905Z,24.55
2022-08-17T13:43:58.420Z,24.31
2022-08-17T13:45:01.469Z,24.53
2022-08-17T13:46:28.271Z,24.82
2022-08-17T13:47:29.811Z,24.72
2022-08-17T13:48:31.327Z,24.64
2022-08-17T13:49:48.440Z,24.53
2022-08-17T13:51:06.951Z,24.33
2022-08-17T13:52:12.472Z,24.35
2022-08-17T13:53:21.393Z,24.27
2022-08-17T13:54:29.066Z,24.32
2022-08-17T13:55:31.538Z,24.45
2022-08-17T13:57:02.211Z,24.49
2022-08-17T13:58:06.999Z,24.48
2022-08-17T13:59:12.390Z,24.46
2022-08-17T14:00:19.852Z,24.43
2022-08-17T14:01:29.271Z,24.59
2022-08-17T14:02:30.793Z,24.60
2022-08-17T14:03:32.287Z,24.79
2022-08-17T14:04:38.055Z,24.80
2022-08-17T14:05:39.597Z,25.05
2022-08-17T14:06:51.978Z,25.12
2022-08-17T14:07:57.293Z,25.25
2022-08-17T14:08:58.916Z,25.00
2022-08-17T14:10:04.081Z,24.85
2022-08-17T14:11:05.577Z,24.88
2022-08-17T14:12:11.457Z,24.85
2022-08-17T14:13:14.090Z,24.93
2022-08-17T14:14:16.556Z,25.02
2022-08-17T14:15:20.528Z,24.70
2022-08-17T14:16:22.029Z,24.71
2022-08-17T14:17:25.062Z,25.01
2022-08-17T14:18:50.519Z,24.98
2022-08-17T14:19:49.256Z,25.11
2022-08-17T14:20:50.784Z,25.07
2022-08-17T14:21:53.026Z,25.12
2022-08-17T14:22:55.075Z,25.06
2022-08-17T14:23:57.865Z,25.17
2022-08-17T14:25:01.059Z,24.98
2022-08-17T14:26:02.582Z,25.26
2022-08-17T14:27:05.378Z,25.39
2022-08-17T14:28:06.883Z,25.33
2022-08-17T14:29:15.426Z,25.00
2022-08-17T14:30:17.531Z,25.05
2022-08-17T14:31:19.042Z,25.19
2022-08-17T14:32:23.294Z,25.26
2022-08-17T14:33:24.764Z,25.07
2022-08-17T14:34:26.273Z,25.29
2022-08-17T14:35:29.669Z,25.28
2022-08-17T14:36:31.153Z,25.31
2022-08-17T14:37:32.983Z,25.44